Time;durP1;ratioP1;P1;durP2;ratioP2;P2;SDS_P1;SDS_P2;PMS_P1;PMS_P2;Temp;Humidity;BMP_temperature;BMP_pressure;BME280_temperature;BME280_humidity;BME280_pressure;Samples;Min_cycle;Max_cycle;Signal;HPM_P1;HPM_P2
2022/11/27 00:00:46;;;;;;;7.97;4.28;;;;;;;3.71;68.20;97431.31;5135065;27;20122;-62
2022/11/27 00:03:13;;;;;;;6.00;4.05;;;;;;;3.74;68.15;97428.75;5134667;27;20047;-61
2022/11/27 00:05:40;;;;;;;4.38;3.78;;;;;;;3.74;67.97;97426.16;5134841;27;20446;-62
2022/11/27 00:08:08;;;;;;;5.80;3.75;;;;;;;3.73;67.57;97433.06;5134729;27;20103;-61
2022/11/27 00:10:36;;;;;;;5.43;3.53;;;;;;;3.72;67.44;97433.91;5134871;27;20122;-62
2022/11/27 00:13:03;;;;;;;6.55;3.78;;;;;;;3.71;67.34;97431.31;5134722;27;20481;-62
2022/11/27 00:15:30;;;;;;;5.53;3.90;;;;;;;3.81;67.40;97433.09;5134650;27;20123;-61
2022/11/27 00:17:58;;;;;;;6.25;3.45;;;;;;;3.74;67.28;97426.16;5134539;27;20047;-61
2022/11/27 00:20:25;;;;;;;7.68;3.83;;;;;;;3.75;67.03;97428.75;5134661;27;20048;-62
2022/11/27 00:22:52;;;;;;;6.60;4.22;;;;;;;3.82;67.28;97433.97;5134574;27;20057;-61
2022/11/27 00:25:19;;;;;;;5.40;3.92;;;;;;;3.81;67.08;97435.69;5134552;27;20075;-61
2022/11/27 00:27:46;;;;;;;4.60;3.30;;;;;;;3.76;67.24;97435.66;5134445;27;20104;-62
2022/11/27 00:30:14;;;;;;;5.72;3.75;;;;;;;3.73;66.96;97437.38;5134475;27;20130;-62
2022/11/27 00:32:41;;;;;;;7.68;4.80;;;;;;;3.72;66.56;97446.88;5134429;27;20074;-62
2022/11/27 00:35:10;;;;;;;6.10;4.35;;;;;;;3.78;66.15;97448.59;5134455;27;20074;-61
2022/11/27 00:37:37;;;;;;;4.80;3.70;;;;;;;3.78;65.97;97446.03;5134318;27;20147;-61
2022/11/27 00:40:05;;;;;;;7.20;4.40;;;;;;;3.86;65.86;97446.94;5134335;27;20079;-61
2022/11/27 00:42:32;;;;;;;5.13;3.90;;;;;;;3.90;65.97;97450.38;5134432;27;20118;-61
2022/11/27 00:44:59;;;;;;;9.68;4.13;;;;;;;3.92;66.36;97452.09;5134387;27;20472;-61
2022/11/27 00:47:26;;;;;;;4.60;3.60;;;;;;;3.99;66.23;97455.59;5134035;27;20043;-61
2022/11/27 00:49:54;;;;;;;5.88;3.75;;;;;;;3.94;65.99;97454.69;5134244;27;20564;-61
2022/11/27 00:52:22;;;;;;;5.43;3.97;;;;;;;3.95;65.52;97453.84;5134104;27;20058;-61
2022/11/27 00:54:50;;;;;;;4.68;3.13;;;;;;;3.98;65.19;97451.28;5134171;27;20158;-62
2022/11/27 00:57:17;;;;;;;5.95;3.42;;;;;;;4.02;65.18;97452.13;5134149;27;20086;-62
2022/11/27 00:59:44;;;;;;;4.70;3.25;;;;;;;4.11;64.28;97454.75;5134070;27;20126;-61
2022/11/27 01:02:11;;;;;;;4.40;3.00;;;;;;;4.13;63.79;97459.94;5134140;27;20122;-61
2022/11/27 01:04:38;;;;;;;4.43;3.33;;;;;;;4.16;64.03;97455.63;5133987;27;20088;-61
2022/11/27 01:07:06;;;;;;;5.82;3.10;;;;;;;4.24;63.08;97449.63;5134104;27;20047;-61
2022/11/27 01:09:35;;;;;;;3.95;3.03;;;;;;;4.26;63.56;97453.94;5133966;27;20047;-61
2022/11/27 01:12:02;;;;;;;4.07;2.92;;;;;;;4.27;63.44;97447.88;5134004;27;20094;-61
2022/11/27 01:14:29;;;;;;;4.65;2.97;;;;;;;4.28;62.93;97448.75;5133938;27;20047;-62
2022/11/27 01:16:56;;;;;;;4.80;2.88;;;;;;;4.30;64.06;97447.88;5137152;27;20044;-61
2022/11/27 01:19:23;;;;;;;4.13;3.03;;;;;;;4.33;63.86;97459.13;5138178;27;20130;-62
2022/11/27 01:21:50;;;;;;;4.13;3.00;;;;;;;4.32;65.41;97452.19;5138097;27;20129;-61
2022/11/27 01:24:17;;;;;;;4.68;3.13;;;;;;;4.34;65.75;97453.06;5138083;27;20047;-62
2022/11/27 01:26:47;;;;;;;4.70;3.22;;;;;;;4.29;65.69;97443.56;5137940;27;20043;-62
2022/11/27 01:29:14;;;;;;;4.20;2.85;;;;;;;4.35;65.68;97447.03;5137900;27;20480;-61
2022/11/27 01:31:41;;;;;;;3.13;2.80;;;;;;;4.36;65.10;97444.44;5137918;27;20122;-61
2022/11/27 01:34:13;;;;;;;5.22;2.90;;;;;;;4.32;65.37;97447.00;5138017;27;20126;-61
2022/11/27 01:36:40;;;;;;;4.22;3.17;;;;;;;4.26;64.76;97447.88;5137785;27;20126;-61
2022/11/27 01:39:08;;;;;;;6.38;4.15;;;;;;;4.24;64.03;97444.44;5137909;27;20043;-61
2022/11/27 01:41:38;;;;;;;6.55;4.07;;;;;;;4.21;64.41;97432.31;5137951;27;20442;-62
2022/11/27 01:44:35;;;;;;;4.35;3.05;;;;;;;4.22;65.04;97439.25;5137724;27;20046;-61
2022/11/27 01:47:07;;;;;;;4.28;2.67;;;;;;;4.14;65.57;97438.34;5124550;27;20063;-62
2022/11/27 01:49:37;;;;;;;4.57;2.70;;;;;;;4.13;64.69;97449.59;5137622;27;20051;-61
2022/11/27 01:52:10;;;;;;;2.70;2.17;;;;;;;4.08;64.49;97440.91;5137515;27;20043;-62
2022/11/27 01:54:40;;;;;;;3.05;2.58;;;;;;;4.01;63.03;97443.50;5137525;27;20134;-61
2022/11/27 01:57:13;;;;;;;15.13;7.53;;;;;;;4.03;63.29;97443.50;5137452;27;20047;-61
2022/11/27 01:59:41;;;;;;;9.68;5.13;;;;;;;4.08;62.76;97448.69;5137444;27;20081;-61
2022/11/27 02:02:10;;;;;;;5.40;3.45;;;;;;;4.12;63.03;97440.09;5137423;27;20047;-61
2022/11/27 02:04:37;;;;;;;7.82;4.57;;;;;;;4.04;62.43;97434.88;5137473;27;20422;-61
2022/11/27 02:07:04;;;;;;;5.07;3.40;;;;;;;4.01;62.26;97429.69;5137193;27;20450;-61
2022/11/27 02:09:32;;;;;;;4.00;2.70;;;;;;;4.06;63.43;97437.47;5137384;27;20047;-60
2022/11/27 02:12:11;;;;;;;12.70;5.95;;;;;;;3.99;63.27;97432.28;5137121;27;20081;-62
2022/11/27 02:14:44;;;;;;;4.45;3.00;;;;;;;4.01;63.59;97430.53;5137270;27;20088;-61
2022/11/27 02:17:26;;;;;;;6.32;3.00;;;;;;;4.08;61.68;97436.63;5136918;27;20075;-62
2022/11/27 02:20:13;;;;;;;2.75;2.38;;;;;;;4.12;61.25;97434.91;5136960;27;20047;-61
2022/11/27 02:22:58;;;;;;;3.53;2.28;;;;;;;4.17;61.07;97430.59;5136913;27;20431;-61
2022/11/27 02:25:33;;;;;;;3.47;2.33;;;;;;;4.19;63.00;97438.38;5136889;27;20047;-61
2022/11/27 02:28:20;;;;;;;4.05;3.05;;;;;;;4.25;64.51;97440.97;5136548;27;20545;-62
2022/11/27 02:30:51;;;;;;;3.53;2.40;;;;;;;4.22;66.07;97449.59;5136891;27;20108;-61
2022/11/27 02:33:21;;;;;;;3.05;2.40;;;;;;;4.24;67.30;97444.44;5136694;27;20050;-61
2022/11/27 02:35:52;;;;;;;3.75;2.83;;;;;;;4.21;67.50;97441.84;5136800;27;20090;-61
2022/11/27 02:38:26;;;;;;;3.60;2.95;;;;;;;4.18;67.48;97447.84;5136576;27;20473;-61
2022/11/27 02:40:58;;;;;;;3.55;2.65;;;;;;;4.19;67.18;97440.94;5136677;27;20480;-62
2022/11/27 02:43:30;;;;;;;4.10;2.72;;;;;;;4.21;66.67;97442.69;5136726;27;20043;-61
2022/11/27 02:46:01;;;;;;;4.22;3.20;;;;;;;4.22;67.37;97443.56;5136466;27;20092;-61
2022/11/27 02:48:34;;;;;;;4.60;3.38;;;;;;;4.23;67.52;97440.09;5136329;27;20137;-62
2022/11/27 02:51:03;;;;;;;5.30;3.55;;;;;;;4.24;67.44;97440.09;5136334;27;20090;-61
2022/11/27 02:53:35;;;;;;;5.30;3.13;;;;;;;4.22;67.59;97444.44;5136265;27;20079;-61
2022/11/27 02:56:05;;;;;;;4.97;3.40;;;;;;;4.22;67.90;97448.72;5136411;27;20043;-61
2022/11/27 02:58:33;;;;;;;3.60;3.15;;;;;;;4.20;67.88;97446.13;5136355;27;20126;-61
2022/11/27 03:01:03;;;;;;;4.53;3.17;;;;;;;4.17;68.12;97441.81;5136271;27;20047;-61
2022/11/27 03:03:36;;;;;;;3.53;2.35;;;;;;;4.13;67.84;97445.25;5136181;27;20047;-62
2022/11/27 03:06:09;;;;;;;6.00;3.30;;;;;;;4.12;68.28;97445.28;5136086;27;20050;-61
2022/11/27 03:08:41;;;;;;;3.60;2.70;;;;;;;4.12;68.02;97451.28;5135952;27;20096;-61
2022/11/27 03:11:10;;;;;;;4.53;2.80;;;;;;;4.13;68.19;97449.59;5136008;27;20051;-62
2022/11/27 03:13:41;;;;;;;5.60;2.88;;;;;;;4.10;68.38;97439.22;5135883;27;20039;-61
2022/11/27 03:16:15;;;;;;;3.83;2.53;;;;;;;4.09;68.37;97442.66;5135963;27;20116;-61
2022/11/27 03:18:52;;;;;;;6.65;2.63;;;;;;;4.09;68.33;97445.25;5135881;27;20070;-61
2022/11/27 03:21:29;;;;;;;2.85;2.35;;;;;;;4.08;68.01;97444.38;5135680;27;20055;-62
2022/11/27 03:23:57;;;;;;;4.10;2.10;;;;;;;4.10;68.36;97453.03;5135738;27;20057;-62
2022/11/27 03:26:25;;;;;;;2.92;2.30;;;;;;;4.11;68.39;97448.69;5135708;27;20503;-62
2022/11/27 03:28:53;;;;;;;3.05;2.40;;;;;;;4.09;69.09;97451.28;5135473;27;20126;-62
2022/11/27 03:31:22;;;;;;;9.55;5.93;;;;;;;4.10;68.92;97454.75;5135509;27;20049;-62
2022/11/27 03:33:50;;;;;;;6.55;4.20;;;;;;;4.09;68.97;97451.28;5135576;27;20051;-61
2022/11/27 03:36:20;;;;;;;115.78;59.58;;;;;;;4.09;68.15;97456.47;5135606;27;20517;-62
2022/11/27 03:38:49;;;;;;;53.85;29.88;;;;;;;4.04;68.10;97456.44;5134821;27;20039;-61
2022/11/27 03:41:23;;;;;;;42.78;25.15;;;;;;;4.05;67.88;97454.72;5135455;27;20054;-62
2022/11/27 03:43:58;;;;;;;10.38;6.57;;;;;;;4.04;68.42;97453.84;5135344;27;20057;-61
2022/11/27 03:46:36;;;;;;;3.40;2.88;;;;;;;4.00;68.30;97459.06;5135259;27;20078;-62
2022/11/27 03:49:14;;;;;;;3.83;2.75;;;;;;;3.95;68.08;97463.34;5135308;27;20050;-61
2022/11/27 03:51:50;;;;;;;3.35;2.63;;;;;;;3.83;68.10;97453.81;5135201;27;20122;-62
2022/11/27 03:54:26;;;;;;;3.65;2.95;;;;;;;3.77;67.62;97452.06;5135182;27;20516;-61
2022/11/27 03:56:59;;;;;;;3.67;2.60;;;;;;;3.71;67.43;97462.38;5135003;27;20039;-61
2022/11/27 03:59:30;;;;;;;3.47;2.53;;;;;;;3.72;67.89;97462.41;5135021;27;20051;-61
2022/11/27 04:01:59;;;;;;;2.95;2.13;;;;;;;3.74;67.97;97465.00;5135032;27;20044;-61
2022/11/27 04:04:26;;;;;;;2.47;2.17;;;;;;;3.70;67.75;97458.06;5134942;27;20093;-62
2022/11/27 04:06:53;;;;;;;4.53;2.05;;;;;;;3.63;67.68;97452.00;5134929;27;20126;-62
2022/11/27 04:09:20;;;;;;;2.03;1.80;;;;;;;3.55;67.97;97454.53;5134881;27;20108;-61
2022/11/27 04:11:47;;;;;;;2.75;2.00;;;;;;;3.49;68.28;97457.97;5134786;27;20426;-61
2022/11/27 04:14:14;;;;;;;4.93;2.10;;;;;;;3.39;68.02;97457.06;5134749;27;20466;-61
2022/11/27 04:16:42;;;;;;;3.45;2.03;;;;;;;3.34;67.55;97463.91;5134541;27;20043;-61
2022/11/27 04:19:10;;;;;;;2.97;2.22;;;;;;;3.34;67.11;97455.31;5134643;27;20515;-61
2022/11/27 04:21:37;;;;;;;5.72;2.05;;;;;;;3.21;67.25;97457.81;5134678;27;20043;-61
2022/11/27 04:24:05;;;;;;;3.78;1.63;;;;;;;3.09;67.85;97456.03;5134685;27;20074;-62
2022/11/27 04:26:32;;;;;;;2.42;1.90;;;;;;;3.10;67.90;97457.75;5134581;27;20126;-61
2022/11/27 04:28:59;;;;;;;2.88;2.28;;;;;;;3.07;67.79;97457.72;5134466;27;20457;-61
2022/11/27 04:31:26;;;;;;;2.78;2.00;;;;;;;3.01;68.04;97457.72;5134516;27;20046;-62
2022/11/27 04:33:53;;;;;;;2.17;1.70;;;;;;;2.98;67.80;97457.69;5134388;27;20043;-61
2022/11/27 04:36:21;;;;;;;2.42;2.00;;;;;;;2.92;68.30;97462.81;5134467;27;20051;-61
2022/11/27 04:38:48;;;;;;;4.93;2.30;;;;;;;2.84;67.85;97463.63;5134389;27;20043;-61
2022/11/27 04:41:15;;;;;;;2.20;2.00;;;;;;;2.82;68.28;97457.56;5134386;27;20484;-62
2022/11/27 04:43:43;;;;;;;3.17;2.20;;;;;;;2.80;68.52;97456.66;5134276;27;20047;-62
2022/11/27 04:46:10;;;;;;;2.10;1.73;;;;;;;2.74;68.51;97451.47;5134276;27;20465;-62
2022/11/27 04:48:37;;;;;;;2.13;1.67;;;;;;;2.64;68.35;97447.94;5134259;27;20122;-62
2022/11/27 04:51:04;;;;;;;1.70;1.50;;;;;;;2.61;68.70;97446.19;5133247;27;20092;-61
2022/11/27 04:53:33;;;;;;;2.67;2.03;;;;;;;2.63;68.97;97449.69;5134168;27;20438;-62
2022/11/27 04:56:00;;;;;;;2.08;1.70;;;;;;;2.66;68.87;97448.81;5134303;27;20126;-61
2022/11/27 04:58:27;;;;;;;2.85;1.95;;;;;;;2.66;69.08;97459.16;5134197;27;20090;-62
2022/11/27 05:00:55;;;;;;;1.88;1.65;;;;;;;2.68;68.20;97464.34;5134173;27;20049;-62
2022/11/27 05:03:22;;;;;;;2.15;1.95;;;;;;;2.59;68.21;97465.13;5134041;27;20079;-62
2022/11/27 05:05:55;;;;;;;4.50;2.00;;;;;;;2.53;68.62;97458.19;5133948;27;20047;-62
2022/11/27 05:08:23;;;;;;;2.80;2.08;;;;;;;2.46;68.59;97461.56;5133981;27;20047;-62
2022/11/27 05:11:01;;;;;;;2.05;1.85;;;;;;;2.44;68.64;97463.28;5133905;27;20050;-62
2022/11/27 05:13:29;;;;;;;5.85;1.85;;;;;;;2.44;68.86;97468.44;5134135;27;20047;-62
2022/11/27 05:15:56;;;;;;;2.58;2.10;;;;;;;2.34;69.18;97457.13;5134030;27;20043;-62
2022/11/27 05:18:23;;;;;;;4.13;2.50;;;;;;;2.28;69.09;97460.53;5133716;27;20496;-62
2022/11/27 05:20:56;;;;;;;2.22;1.88;;;;;;;2.17;69.65;97460.44;5133795;27;20133;-62
2022/11/27 05:23:23;;;;;;;2.25;1.90;;;;;;;2.11;69.80;97468.13;5133977;27;20077;-62
2022/11/27 05:25:50;;;;;;;2.60;1.85;;;;;;;2.10;70.08;97468.94;5133849;27;20047;-62
2022/11/27 05:28:20;;;;;;;2.17;1.75;;;;;;;2.01;70.21;97470.59;5133847;27;20131;-61
2022/11/27 05:30:47;;;;;;;3.30;1.77;;;;;;;2.03;70.16;97478.34;5133745;27;20051;-62
2022/11/27 05:33:15;;;;;;;2.65;1.73;;;;;;;2.07;70.21;97477.53;5133816;27;20092;-62
2022/11/27 05:35:43;;;;;;;2.00;1.80;;;;;;;2.00;69.95;97476.63;5133821;27;20047;-61
2022/11/27 05:38:10;;;;;;;3.13;1.88;;;;;;;1.95;69.69;97467.06;5133669;27;20054;-62
2022/11/27 05:40:38;;;;;;;2.38;1.73;;;;;;;1.95;69.46;97462.78;5133851;27;20054;-62
2022/11/27 05:43:05;;;;;;;2.13;1.80;;;;;;;1.96;69.87;97476.56;5133695;27;20047;-62
2022/11/27 05:45:34;;;;;;;2.72;2.05;;;;;;;2.01;69.97;97483.50;5133634;27;20099;-61
2022/11/27 05:48:02;;;;;;;4.07;2.13;;;;;;;2.08;69.81;97488.75;5133659;27;20046;-62
2022/11/27 05:50:29;;;;;;;3.50;2.10;;;;;;;2.10;69.26;97487.91;5133559;27;20103;-61
2022/11/27 05:52:56;;;;;;;5.43;2.20;;;;;;;2.17;69.34;97478.53;5133578;27;20385;-62
2022/11/27 05:55:23;;;;;;;2.78;1.77;;;;;;;2.16;69.47;97484.50;5133568;27;20129;-62
2022/11/27 05:57:51;;;;;;;3.13;1.70;;;;;;;2.17;69.29;97490.56;5133538;27;20403;-62
2022/11/27 06:00:18;;;;;;;2.42;2.00;;;;;;;2.18;68.68;97498.31;5133448;27;20485;-61
2022/11/27 06:02:53;;;;;;;2.22;1.90;;;;;;;2.20;69.00;97500.91;5136304;27;20096;-61
2022/11/27 06:05:21;;;;;;;1.85;1.65;;;;;;;2.23;69.28;97506.97;5137276;27;20092;-61
2022/11/27 06:07:50;;;;;;;2.65;2.00;;;;;;;2.25;69.40;97505.28;5137233;27;20043;-62
2022/11/27 06:10:18;;;;;;;2.30;1.73;;;;;;;2.28;69.01;97509.59;5137046;27;20106;-62
2022/11/27 06:12:46;;;;;;;2.25;1.90;;;;;;;2.25;69.26;97501.81;5137128;27;20043;-61
2022/11/27 06:15:17;;;;;;;7.07;2.15;;;;;;;2.29;69.06;97505.31;5137031;27;20480;-61
2022/11/27 06:17:46;;;;;;;3.95;1.65;;;;;;;2.35;69.10;97505.38;5136794;27;20044;-62
2022/11/27 06:20:19;;;;;;;1.98;1.60;;;;;;;2.39;68.83;97508.00;5137075;27;20050;-62
2022/11/27 06:22:52;;;;;;;3.25;1.95;;;;;;;2.48;69.97;97516.69;5136946;27;20082;-62
2022/11/27 06:25:34;;;;;;;1.58;1.48;;;;;;;2.55;69.90;97518.47;5136914;27;20054;-61
2022/11/27 06:28:03;;;;;;;6.43;2.03;;;;;;;2.65;69.96;97512.53;5136809;27;20043;-62
2022/11/27 06:30:40;;;;;;;2.35;1.90;;;;;;;2.67;70.14;97522.91;5136764;27;20130;-61
2022/11/27 06:33:12;;;;;;;2.85;2.10;;;;;;;2.74;70.10;97526.41;5136741;27;20155;-62
2022/11/27 06:35:47;;;;;;;4.75;1.98;;;;;;;2.80;70.23;97523.03;5136723;27;20043;-62
2022/11/27 06:38:14;;;;;;;2.65;2.00;;;;;;;2.89;70.66;97523.94;5136625;27;20039;-62
2022/11/27 06:40:41;;;;;;;2.70;2.20;;;;;;;2.96;70.49;97522.31;5136584;27;20043;-62
2022/11/27 06:43:09;;;;;;;6.28;4.30;;;;;;;3.03;69.74;97518.91;5136546;27;20054;-62
2022/11/27 06:45:36;;;;;;;4.68;3.28;;;;;;;3.14;69.40;97516.41;5136605;27;20058;-62
2022/11/27 06:48:04;;;;;;;5.28;3.83;;;;;;;3.26;69.46;97509.59;5136631;27;20047;-61
2022/11/27 06:50:31;;;;;;;5.45;3.53;;;;;;;3.36;68.46;97513.09;5136334;27;20138;-61
2022/11/27 06:53:00;;;;;;;5.13;2.90;;;;;;;3.44;68.79;97516.59;5136285;27;20115;-62
2022/11/27 06:55:28;;;;;;;2.90;2.40;;;;;;;3.50;70.82;97520.94;5136438;27;20043;-62
2022/11/27 06:57:57;;;;;;;3.60;2.70;;;;;;;3.40;71.21;97500.19;5136129;27;20051;-62
2022/11/27 07:00:25;;;;;;;8.07;4.50;;;;;;;3.58;70.89;97515.81;5136361;27;20085;-62
2022/11/27 07:02:56;;;;;;;3.78;3.00;;;;;;;3.58;70.14;97508.91;5136213;27;20492;-61
2022/11/27 07:05:25;;;;;;;7.70;4.70;;;;;;;3.65;69.20;97518.41;5136146;27;20043;-62
2022/11/27 07:08:00;;;;;;;7.97;4.00;;;;;;;3.74;68.79;97516.75;5136075;27;20043;-61
2022/11/27 07:10:30;;;;;;;6.50;4.13;;;;;;;3.82;68.52;97512.47;5135805;27;20058;-62
2022/11/27 07:13:00;;;;;;;5.85;3.97;;;;;;;3.83;68.27;97508.16;5135094;27;20442;-62
2022/11/27 07:15:29;;;;;;;6.60;3.93;;;;;;;3.85;67.68;97509.06;5135955;27;20088;-62
2022/11/27 07:18:01;;;;;;;8.35;4.95;;;;;;;3.86;67.04;97515.94;5135627;27;20048;-61
2022/11/27 07:20:28;;;;;;;9.80;6.00;;;;;;;3.94;65.96;97506.47;5135771;27;20043;-61
2022/11/27 07:22:56;;;;;;;6.45;4.13;;;;;;;4.08;66.55;97511.72;5135809;27;20066;-62
2022/11/27 07:25:23;;;;;;;10.70;4.53;;;;;;;4.11;66.65;97506.56;5135809;27;20047;-62
2022/11/27 07:27:52;;;;;;;7.47;3.92;;;;;;;4.18;66.57;97507.41;5135725;27;20054;-61
2022/11/27 07:30:19;;;;;;;6.82;4.63;;;;;;;4.27;65.96;97511.75;5135480;27;20166;-61
2022/11/27 07:32:47;;;;;;;5.78;3.95;;;;;;;4.36;66.01;97513.53;5135496;27;20047;-61
2022/11/27 07:35:18;;;;;;;7.95;4.30;;;;;;;4.46;65.50;97509.22;5135510;27;20050;-62
2022/11/27 07:37:46;;;;;;;5.80;4.20;;;;;;;4.54;64.08;97523.94;5135453;27;20039;-62
2022/11/27 07:40:14;;;;;;;7.15;5.70;;;;;;;4.64;63.93;97514.44;5135431;27;20072;-61
2022/11/27 07:42:42;;;;;;;7.07;5.50;;;;;;;4.77;63.68;97512.75;5135430;27;20067;-61
2022/11/27 07:45:12;;;;;;;12.23;5.95;;;;;;;4.85;63.80;97506.69;5135410;27;20047;-61
2022/11/27 07:47:40;;;;;;;10.73;6.18;;;;;;;4.88;63.79;97504.09;5135403;27;20133;-61
2022/11/27 07:50:11;;;;;;;11.50;5.53;;;;;;;4.98;63.02;97512.72;5135054;27;20047;-61
2022/11/27 07:52:42;;;;;;;6.15;4.18;;;;;;;5.09;63.48;97508.41;5135162;27;20408;-61
2022/11/27 07:55:11;;;;;;;5.82;4.50;;;;;;;5.18;63.69;97510.16;5135103;27;20051;-61
2022/11/27 07:57:39;;;;;;;7.57;4.45;;;;;;;5.30;62.95;97515.31;5135004;27;20047;-61
2022/11/27 08:00:08;;;;;;;8.88;4.63;;;;;;;5.46;62.29;97510.09;5134992;27;20051;-62
2022/11/27 08:02:37;;;;;;;8.23;4.78;;;;;;;5.57;62.20;97510.94;5134949;27;20488;-62
2022/11/27 08:05:05;;;;;;;6.43;4.03;;;;;;;5.67;61.22;97516.97;5134855;27;20054;-60
2022/11/27 08:07:33;;;;;;;7.47;4.05;;;;;;;5.75;60.94;97510.91;5134940;27;20043;-61
2022/11/27 08:10:01;;;;;;;4.13;3.08;;;;;;;5.80;60.66;97507.41;5134851;27;20051;-62
2022/11/27 08:12:29;;;;;;;6.47;3.70;;;;;;;5.94;60.85;97507.34;5134816;27;20407;-61
2022/11/27 08:14:58;;;;;;;3.92;3.13;;;;;;;6.05;60.71;97512.53;5134764;27;20050;-61
2022/11/27 08:17:26;;;;;;;2.40;2.03;;;;;;;6.17;55.24;97513.38;5134433;27;20047;-61
2022/11/27 08:19:56;;;;;;;3.03;2.65;;;;;;;6.22;55.24;97516.78;5134688;27;20142;-61
2022/11/27 08:22:23;;;;;;;2.63;2.42;;;;;;;6.29;54.95;97507.25;5134573;27;20081;-62
2022/11/27 08:24:53;;;;;;;3.05;2.40;;;;;;;6.44;54.93;97506.25;5134423;27;20545;-62
2022/11/27 08:27:26;;;;;;;2.95;2.40;;;;;;;6.53;50.96;97505.38;5134509;27;20058;-61
2022/11/27 08:29:53;;;;;;;3.67;2.30;;;;;;;6.59;50.26;97507.91;5133522;27;20075;-61
2022/11/27 08:32:20;;;;;;;3.28;2.22;;;;;;;6.61;49.88;97500.97;5134484;27;20130;-62
2022/11/27 08:34:48;;;;;;;3.08;2.30;;;;;;;6.70;50.26;97495.72;5134526;27;20047;-62
2022/11/27 08:37:18;;;;;;;2.13;1.90;;;;;;;7.17;50.07;97495.31;5134452;27;20047;-61
2022/11/27 08:39:46;;;;;;;2.40;2.15;;;;;;;7.77;47.72;97486.94;5134400;27;20043;-61
2022/11/27 08:42:15;;;;;;;6.13;2.00;;;;;;;7.95;47.51;97486.69;5134347;27;20039;-62
2022/11/27 08:44:46;;;;;;;2.70;2.08;;;;;;;8.22;48.12;97483.78;5134314;27;20124;-62
2022/11/27 08:47:16;;;;;;;5.03;1.77;;;;;;;8.30;46.30;97478.44;5134174;27;20381;-62
2022/11/27 08:49:44;;;;;;;2.67;1.90;;;;;;;8.47;45.50;97470.38;5134154;27;20126;-62
2022/11/27 08:52:12;;;;;;;2.13;1.92;;;;;;;8.66;45.44;97476.22;5134118;27;20476;-60
2022/11/27 08:54:43;;;;;;;1.33;1.23;;;;;;;8.76;41.52;97468.25;5134136;27;20043;-62
2022/11/27 08:57:10;;;;;;;;;;;;;;;8.70;39.31;97470.06;5134572;27;20630;-60
2022/11/27 08:59:38;;;;;;;1.05;1.00;;;;;;;8.64;39.85;97461.47;5134214;27;19923;-59
2022/11/27 09:02:12;;;;;;;0.95;0.88;;;;;;;8.51;38.87;97451.19;5134094;27;20569;-61
2022/11/27 09:04:39;;;;;;;1.85;1.30;;;;;;;8.52;40.73;97449.44;5134044;27;20100;-60
2022/11/27 09:07:13;;;;;;;2.15;1.38;;;;;;;8.58;40.35;97442.41;5134001;27;20130;-62
2022/11/27 09:09:42;;;;;;;1.52;1.02;;;;;;;8.71;38.69;97448.31;5134050;27;20408;-62
2022/11/27 09:12:10;;;;;;;0.90;0.80;;;;;;;8.68;38.49;97447.50;5134020;27;20039;-62
2022/11/27 09:14:38;;;;;;;1.30;0.90;;;;;;;8.67;37.83;97446.63;5133916;27;20050;-59
2022/11/27 09:17:06;;;;;;;0.80;0.75;;;;;;;8.70;38.67;97445.72;5133725;27;20504;-62
2022/11/27 09:19:33;;;;;;;1.33;1.10;;;;;;;8.80;39.35;97438.59;5133872;27;20495;-62
2022/11/27 09:22:01;;;;;;;1.65;1.27;;;;;;;8.97;38.64;97433.97;5133961;27;20134;-62
2022/11/27 09:24:28;;;;;;;1.63;1.10;;;;;;;9.07;38.67;97426.84;5133916;27;20039;-60
2022/11/27 09:26:57;;;;;;;0.90;0.90;;;;;;;9.29;38.00;97431.66;5133801;27;20224;-62
2022/11/27 09:29:26;;;;;;;0.90;0.90;;;;;;;9.39;37.57;97419.28;5133902;27;20051;-63
2022/11/27 09:31:55;;;;;;;1.40;1.20;;;;;;;9.46;38.06;97412.22;5133928;27;20051;-62
2022/11/27 09:34:22;;;;;;;1.48;1.20;;;;;;;9.46;37.49;97417.44;5133880;27;20043;-62
2022/11/27 09:36:50;;;;;;;2.22;1.98;;;;;;;9.58;39.02;97414.56;5135433;27;20043;-62
2022/11/27 09:39:19;;;;;;;4.15;2.13;;;;;;;9.68;40.00;97410.03;5137814;27;20043;-61
2022/11/27 09:41:52;;;;;;;2.00;1.80;;;;;;;9.63;38.70;97411.00;5137737;27;20085;-62
2022/11/27 09:44:30;;;;;;;1.02;1.00;;;;;;;9.46;37.46;97399.97;5137683;27;20054;-60
2022/11/27 09:47:05;;;;;;;1.55;1.30;;;;;;;9.47;37.50;97403.47;5137623;27;20382;-62
2022/11/27 09:49:43;;;;;;;1.58;1.45;;;;;;;9.60;37.78;97399.72;5137568;27;20571;-61
2022/11/27 09:52:20;;;;;;;1.55;1.45;;;;;;;9.64;37.64;97395.31;5137418;27;20083;-62
2022/11/27 09:54:54;;;;;;;2.55;1.65;;;;;;;9.54;37.41;97394.63;5137567;27;20047;-62
2022/11/27 09:57:28;;;;;;;1.17;1.08;;;;;;;9.31;36.94;97400.31;5137627;27;20118;-62
2022/11/27 10:00:07;;;;;;;1.85;0.93;;;;;;;9.18;37.08;97390.09;5137629;27;20046;-62
2022/11/27 10:02:35;;;;;;;2.17;1.65;;;;;;;8.97;38.14;97379.16;5137322;27;20047;-62
2022/11/27 10:05:12;;;;;;;1.63;1.50;;;;;;;8.87;38.35;97382.81;5137253;27;20051;-60
2022/11/27 10:08:00;;;;;;;1.45;1.25;;;;;;;8.71;38.35;97371.78;5137300;27;20081;-61
2022/11/27 10:10:38;;;;;;;1.50;1.27;;;;;;;8.71;39.18;97371.78;5137144;27;20055;-61
2022/11/27 10:13:19;;;;;;;1.25;1.15;;;;;;;8.75;39.27;97368.25;5137114;27;20126;-62
2022/11/27 10:15:59;;;;;;;1.77;1.40;;;;;;;8.76;39.37;97367.34;5137154;27;20079;-62
2022/11/27 10:18:37;;;;;;;1.80;1.33;;;;;;;8.80;39.01;97363.81;5136758;27;20051;-62
2022/11/27 10:21:13;;;;;;;1.45;1.33;;;;;;;8.90;39.89;97361.03;5136981;27;20059;-61
2022/11/27 10:23:47;;;;;;;1.42;1.33;;;;;;;8.89;40.16;97354.09;5136895;27;20416;-62
2022/11/27 10:26:19;;;;;;;1.60;1.42;;;;;;;8.93;39.21;97354.00;5136874;27;20043;-62
2022/11/27 10:28:58;;;;;;;1.33;1.20;;;;;;;8.92;38.88;97344.47;5136849;27;20079;-62
2022/11/27 10:31:36;;;;;;;2.63;1.23;;;;;;;8.88;38.81;97350.59;5136761;27;20082;-62
2022/11/27 10:34:16;;;;;;;1.30;1.20;;;;;;;8.82;39.54;97355.97;5136715;27;20085;-62
2022/11/27 10:36:48;;;;;;;2.72;1.30;;;;;;;8.61;38.83;97351.97;5136758;27;20047;-61
2022/11/27 10:39:22;;;;;;;1.38;1.27;;;;;;;8.46;39.81;97351.31;5136578;27;20047;-62
2022/11/27 10:41:55;;;;;;;1.70;1.55;;;;;;;8.54;39.96;97349.47;5136616;27;20070;-62
2022/11/27 10:44:29;;;;;;;1.70;1.48;;;;;;;8.62;39.89;97344.13;5136577;27;20446;-62
2022/11/27 10:47:03;;;;;;;2.15;1.80;;;;;;;8.69;40.20;97339.66;5136597;27;20050;-62
2022/11/27 10:49:31;;;;;;;1.77;1.67;;;;;;;8.76;40.43;97333.44;5136638;27;20096;-60
2022/11/27 10:51:59;;;;;;;1.75;1.65;;;;;;;8.74;41.28;97329.13;5136462;27;20453;-60
2022/11/27 10:54:31;;;;;;;1.70;1.50;;;;;;;8.75;40.30;97323.88;5136364;27;20482;-60
2022/11/27 10:57:44;;;;;;;1.85;1.75;;;;;;;8.57;39.92;97319.84;5136272;27;20055;-60
2022/11/27 11:00:14;;;;;;;2.70;1.60;;;;;;;8.48;40.70;97318.25;5073021;28;20049;-62
2022/11/27 11:02:44;;;;;;;1.88;1.70;;;;;;;8.41;41.53;97314.88;5130019;27;20055;-60
2022/11/27 11:05:22;;;;;;;2.88;2.00;;;;;;;8.42;40.64;97318.34;5136203;27;20073;-60
2022/11/27 11:08:03;;;;;;;2.33;1.80;;;;;;;8.44;41.35;97312.22;5136077;27;20491;-59
2022/11/27 11:10:31;;;;;;;;;;;;;;;8.40;41.16;97310.53;5136484;27;20047;-60
2022/11/27 11:13:10;;;;;;;3.90;2.65;;;;;;;8.28;41.53;97300.34;5136069;27;19920;-60
2022/11/27 11:15:50;;;;;;;3.10;1.75;;;;;;;8.24;41.51;97309.94;5135854;27;20043;-60
2022/11/27 11:18:21;;;;;;;1.70;1.50;;;;;;;8.24;41.60;97302.13;5135725;27;20048;-60
2022/11/27 11:20:53;;;;;;;2.28;2.08;;;;;;;8.29;41.77;97302.91;5135819;27;20047;-60
2022/11/27 11:23:23;;;;;;;2.33;2.13;;;;;;;8.29;41.71;97296.84;5135714;27;20094;-60
2022/11/27 11:25:54;;;;;;;3.25;2.17;;;;;;;8.34;42.32;97301.09;5135705;27;20047;-63
2022/11/27 11:28:23;;;;;;;3.15;2.50;;;;;;;8.38;41.84;97299.28;5135733;27;20062;-60
2022/11/27 11:30:58;;;;;;;5.47;3.63;;;;;;;8.21;43.09;97297.84;5135555;27;20086;-60
2022/11/27 11:33:29;;;;;;;2.30;2.08;;;;;;;8.10;42.48;97289.34;5135575;27;20055;-59
2022/11/27 11:36:09;;;;;;;2.25;2.03;;;;;;;8.06;42.72;97292.84;5135482;27;20058;-62
2022/11/27 11:38:38;;;;;;;4.82;2.17;;;;;;;8.07;42.93;97305.84;5135414;27;20492;-61
2022/11/27 11:41:08;;;;;;;2.50;1.83;;;;;;;7.99;43.30;97305.13;5135475;27;20043;-62
2022/11/27 11:43:37;;;;;;;5.87;2.30;;;;;;;8.00;43.59;97295.59;5135104;27;20079;-60
2022/11/27 11:46:17;;;;;;;3.35;2.75;;;;;;;7.96;43.36;97292.16;5134549;27;20703;-61
2022/11/27 11:48:58;;;;;;;3.45;2.67;;;;;;;7.88;43.87;97294.88;5134531;27;20463;-60
2022/11/27 11:51:37;;;;;;;2.92;2.10;;;;;;;7.73;43.67;97295.09;5134535;27;20043;-60
2022/11/27 11:54:18;;;;;;;3.67;2.22;;;;;;;7.80;43.40;97287.16;5134602;27;20050;-61
2022/11/27 11:56:52;;;;;;;2.75;2.10;;;;;;;7.92;44.02;97287.88;5134542;27;20050;-59